Latest Coastal Weather Observations for Rowley Shoals

IDW60701

Issued at 7:12 pm WST Saturday 28 March 2015 (issued every 10 minutes, with the page automatically refreshed every 10 minutes)

About coastal observations | Map of coastal stations | Coastal observations for WA | Marine services | Other Formats
Station Details ID: 200713 Name: ROWLEY SHOALS Lat: -17.52 Lon: 118.95 Height: 0.0 m
Data from the previous 72 hours. | See also: Recent months for locations in Western Australia
Date/Time
WST
Temp

°C
Wind Pressure Rain
since 9am
mm
Weather Cloud Vis
km
Sea
Height
m
Swell
Dir
 
Speed
knots
Gust
knots
hPa Trend Height
m
Period
s
Dir
28/07:00pm - E 15 17 1009.8 - - - - - - - - -
28/06:30pm - E 16 19 1009.3 - - - - - - - - -
28/06:00pm - E 16 18 1008.9 - - - - - - - - -
28/05:30pm - E 15 18 1008.7 - - - - - - - - -
28/05:00pm - ESE 16 18 1008.4 - - - - - - - - -
28/04:30pm - ESE 15 18 1008.5 - - - - - - - - -
28/04:00pm - ESE 15 17 1008.4 - - - - - - - - -
28/03:30pm - ESE 14 17 1008.5 - - - - - - - - -
28/03:00pm - ESE 13 15 1008.5 - - - - - - - - -
28/02:30pm - ESE 14 16 1008.6 - - - - - - - - -
28/02:00pm - ESE 13 15 1008.5 - - - - - - - - -
28/01:30pm - ESE 11 13 1009.1 - - - - - - - - -
28/01:00pm - ESE 10 11 1009.2 - - - - - - - - -
28/12:30pm - ESE 8 9 1009.6 - - - - - - - - -
28/12:00pm - ESE 6 7 1009.8 - - - - - - - - -
28/11:30am - SE 8 9 1010.4 - - - - - - - - -
28/11:00am - SE 9 11 1010.8 - - - - - - - - -
28/10:30am - ESE 9 10 1011.3 - - - - - - - - -
28/10:00am - SE 12 14 1011.4 - - - - - - - - -
28/09:30am - SE 13 16 1011.8 - - - - - - - - -
28/09:00am - SSE 10 12 1011.8 - - - - - - - - -
28/08:30am - S 7 9 1011.5 - - - - - - - - -
28/08:00am - S 5 7 1011.3 - - - - - - - - -
28/07:30am - S 7 10 1011.1 - - - - - - - - -
28/07:00am - S 7 8 1010.8 - - - - - - - - -
28/06:30am - S 5 7 1010.7 - - - - - - - - -
28/06:00am - SSE 5 7 1010.5 - - - - - - - - -
28/05:30am - SSE 5 7 1010.4 - - - - - - - - -
28/05:00am - SE 7 9 1010.3 - - - - - - - - -
28/04:30am - SE 6 7 1010.4 - - - - - - - - -
28/04:00am - ESE 6 7 1010.3 - - - - - - - - -
28/03:30am - NE 5 6 1010.1 - - - - - - - - -
28/03:00am - NE 5 7 1010.0 - - - - - - - - -
28/02:30am - NNE 5 6 1010.0 - - - - - - - - -
28/02:00am - E 3 4 1010.1 - - - - - - - - -
28/01:30am - ESE 3 4 1010.6 - - - - - - - - -
28/01:00am - ESE 4 4 1010.8 - - - - - - - - -
28/12:30am - E 4 5 1011.3 - - - - - - - - -
28/12:00am - E 5 6 1011.5 - - - - - - - - -
 
Date/Time
WST
Temp

°C
Wind Pressure Rain
since 9am
mm
Weather Cloud Vis
km
Sea
Height
m
Swell
Dir
 
Speed
knots
Gust
knots
hPa Trend Height
m
Period
s
Dir
27/11:30pm - ESE 5 6 1011.8 - - - - - - - - -
27/11:00pm - ESE 5 6 1011.8 - - - - - - - - -
27/10:30pm - ESE 6 7 1012.0 - - - - - - - - -
27/10:00pm - ESE 6 7 1011.9 - - - - - - - - -
27/09:30pm - ESE 7 8 1011.7 - - - - - - - - -
27/09:00pm - SE 7 7 1011.7 - - - - - - - - -
27/08:30pm - ESE 8 9 1011.5 - - - - - - - - -
27/08:00pm - ESE 9 10 1011.3 - - - - - - - - -
27/07:30pm - ESE 9 11 1010.8 - - - - - - - - -
27/07:00pm - ESE 10 11 1010.5 - - - - - - - - -
27/06:30pm - E 11 13 1010.3 - - - - - - - - -
27/06:00pm - E 11 13 1009.9 - - - - - - - - -
27/05:30pm - E 11 12 1010.1 - - - - - - - - -
27/05:00pm - E 13 14 1009.7 - - - - - - - - -
27/04:30pm - E 10 11 1009.7 - - - - - - - - -
27/04:00pm - E 10 11 1009.6 - - - - - - - - -
27/03:30pm - E 9 11 1009.7 - - - - - - - - -
27/03:00pm - ESE 10 12 1009.6 - - - - - - - - -
27/02:30pm - ESE 10 12 1009.9 - - - - - - - - -
27/02:00pm - ESE 11 12 1009.8 - - - - - - - - -
27/01:30pm - ESE 11 13 1010.1 - - - - - - - - -
27/01:00pm - SE 11 13 1010.3 - - - - - - - - -
27/12:30pm - SE 11 13 1011.0 - - - - - - - - -
27/12:00pm - SSE 12 14 1011.1 - - - - - - - - -
27/11:30am - SSE 11 13 1011.7 - - - - - - - - -
27/11:00am - SSE 11 13 1011.8 - - - - - - - - -
27/10:30am - SSE 11 13 1012.4 - - - - - - - - -
27/10:00am - SSE 11 13 1012.6 - - - - - - - - -
27/09:30am - SSE 11 11 1013.0 - - - - - - - - -
27/09:00am - SSE 9 11 1012.9 - - - - - - - - -
27/08:30am - SSE 8 11 1013.0 - - - - - - - - -
27/08:00am - S 7 10 1012.9 - - - - - - - - -
27/07:30am - S 7 11 1012.8 - - - - - - - - -
27/07:00am - S 11 13 1012.4 - - - - - - - - -
27/06:30am - S 14 16 1012.2 - - - - - - - - -
27/06:00am - SSW 15 18 1012.0 - - - - - - - - -
27/05:30am - SSW 17 19 1011.8 - - - - - - - - -
27/05:00am - SSW 15 17 1011.7 - - - - - - - - -
27/04:30am - SW 13 15 1011.4 - - - - - - - - -
27/04:00am - SW 12 13 1011.2 - - - - - - - - -
27/03:30am - SW 11 12 1011.3 - - - - - - - - -
27/03:00am - SW 10 11 1011.2 - - - - - - - - -
27/02:30am - SW 11 13 1011.6 - - - - - - - - -
27/02:00am - WSW 10 11 1011.6 - - - - - - - - -
27/01:30am - WSW 9 11 1012.1 - - - - - - - - -
27/01:00am - SW 8 9 1012.2 - - - - - - - - -
27/12:30am - WSW 9 9 1012.6 - - - - - - - - -
27/12:00am - SW 9 10 1012.6 - - - - - - - - -
 
Date/Time
WST
Temp

°C
Wind Pressure Rain
since 9am
mm
Weather Cloud Vis
km
Sea
Height
m
Swell
Dir
 
Speed
knots
Gust
knots
hPa Trend Height
m
Period
s
Dir
26/11:30pm - SW 7 8 1012.9 - - - - - - - - -
26/11:00pm - SSW 6 7 1013.0 - - - - - - - - -
26/10:30pm - S 5 6 1013.3 - - - - - - - - -
26/10:00pm - S 5 6 1013.3 - - - - - - - - -
26/09:30pm - SSE 5 7 1013.3 - - - - - - - - -
26/09:00pm - S 6 7 1013.3 - - - - - - - - -
26/08:30pm - S 4 6 1012.9 - - - - - - - - -
26/08:00pm - S 5 6 1012.6 - - - - - - - - -
26/07:30pm - S 5 7 1012.1 - - - - - - - - -
26/07:00pm - S 7 8 1011.8 - - - - - - - - -
26/06:30pm - S 6 7 1011.5 - - - - - - - - -
26/06:00pm - S 5 6 1011.2 - - - - - - - - -
26/05:30pm - S 5 6 1010.8 - - - - - - - - -
26/05:00pm - S 5 6 1010.6 - - - - - - - - -
26/04:30pm - S 5 7 1010.7 - - - - - - - - -
26/04:00pm - S 5 7 1010.7 - - - - - - - - -
26/03:30pm - S 5 7 1010.7 - - - - - - - - -
26/03:00pm - S 6 7 1010.5 - - - - - - - - -
26/02:30pm - S 5 7 1010.6 - - - - - - - - -
26/02:00pm - S 6 7 1010.7 - - - - - - - - -
26/01:30pm - S 7 10 1011.1 - - - - - - - - -
26/01:00pm - S 7 9 1011.3 - - - - - - - - -
26/12:30pm - S 8 11 1011.9 - - - - - - - - -
26/12:00pm - S 7 11 1012.0 - - - - - - - - -
26/11:30am - S 10 11 1012.6 - - - - - - - - -
26/11:00am - S 10 11 1012.8 - - - - - - - - -
26/10:30am - S 8 9 1013.2 - - - - - - - - -
26/10:00am - S 8 9 1013.3 - - - - - - - - -
26/09:30am - S 7 9 1013.5 - - - - - - - - -
26/09:00am - S 7 9 1013.7 - - - - - - - - -
26/08:30am - S 7 10 1013.7 - - - - - - - - -
26/08:00am - S 7 9 1013.3 - - - - - - - - -
26/07:30am - S 7 9 1013.1 - - - - - - - - -
26/07:00am - S 7 10 1012.8 - - - - - - - - -
26/06:30am - S 10 12 1012.6 - - - - - - - - -
26/06:00am - SSW 11 13 1012.3 - - - - - - - - -
26/05:30am - S 11 13 1011.9 - - - - - - - - -
26/05:00am - SSW 11 13 1011.7 - - - - - - - - -
26/04:30am - SSW 12 14 1011.5 - - - - - - - - -
26/04:00am - SSW 11 13 1011.3 - - - - - - - - -
26/03:30am - SSW 11 13 1011.3 - - - - - - - - -
26/03:00am - SSW 11 13 1011.2 - - - - - - - - -
26/02:30am - SSW 9 10 1011.3 - - - - - - - - -
26/02:00am - SSW 5 5 1011.1 - - - - - - - - -
26/01:30am - SSW 6 7 1011.2 - - - - - - - - -
26/01:00am - SSW 5 5 1011.2 - - - - - - - - -
26/12:30am - S 4 4 1011.4 - - - - - - - - -
26/12:00am - S 3 3 1011.5 - - - - - - - - -
 
Date/Time
WST
Temp

°C
Wind Pressure Rain
since 9am
mm
Weather Cloud Vis
km
Sea
Height
m
Swell
Dir
 
Speed
knots
Gust
knots
hPa Trend Height
m
Period
s
Dir
25/11:30pm - CALM 0 0 1011.9 - - - - - - - - -
25/11:00pm - CALM 0 2 1011.9 - - - - - - - - -
25/10:30pm - CALM 0 0 1012.1 - - - - - - - - -
25/10:00pm - SSE 3 4 1012.1 - - - - - - - - -
25/09:30pm - SSE 4 6 1012.1 - - - - - - - - -
25/09:00pm - SSE 5 8 1011.9 - - - - - - - - -
25/08:30pm - SE 8 9 1011.7 - - - - - - - - -
25/08:00pm - SE 7 8 1011.6 - - - - - - - - -
25/07:30pm - SE 8 10 1011.3 - - - - - - - - -

Other Formats:

Comma delimited format used in spreadsheet applications
http://www.bom.gov.au/fwo/IDW60701/IDW60701.94207.axf

JavaScript Object Notation format (JSON) in row-major order
http://www.bom.gov.au/fwo/IDW60701/IDW60701.94207.json